Time;durP1;ratioP1;P1;durP2;ratioP2;P2;SDS_P1;SDS_P2;PMS_P1;PMS_P2;Temp;Humidity;BMP_temperature;BMP_pressure;BME280_temperature;BME280_humidity;BME280_pressure;Samples;Min_cycle;Max_cycle;Signal;HPM_P1;HPM_P2
2022/03/25 00:00:20;;;;;;;;;;;6.60;1.00;;;;;;5094994;28;19990;-71
2022/03/25 00:02:45;;;;;;;;;;;6.50;1.00;;;;;;5095085;28;19912;-71
2022/03/25 00:05:11;;;;;;;;;;;6.50;1.00;;;;;;5094022;28;19915;-71
2022/03/25 00:07:37;;;;;;;;;;;;;;;;;;5076744;28;19920;-71
2022/03/25 00:10:03;;;;;;;;;;;6.50;1.00;;;;;;5094091;28;19916;-71
2022/03/25 00:12:28;;;;;;;;;;;6.40;1.00;;;;;;5094884;28;19915;-71
2022/03/25 00:14:54;;;;;;;;;;;;;;;;;;5094565;28;20435;-70
2022/03/25 00:17:19;;;;;;;;;;;6.30;1.00;;;;;;5094363;28;19908;-71
2022/03/25 00:19:45;;;;;;;;;;;6.30;1.00;;;;;;5094759;28;19977;-71
2022/03/25 00:22:10;;;;;;;;;;;6.60;1.00;;;;;;5093583;28;19908;-71
2022/03/25 00:24:36;;;;;;;;;;;6.60;1.00;;;;;;5076479;28;19916;-72
2022/03/25 00:27:01;;;;;;;;;;;6.50;1.00;;;;;;5093561;28;19916;-71
2022/03/25 00:29:27;;;;;;;;;;;6.30;1.00;;;;;;5094618;28;19908;-71
2022/03/25 00:31:52;;;;;;;;;;;6.50;1.00;;;;;;5094508;28;19908;-71
2022/03/25 00:34:18;;;;;;;;;;;;;;;;;;5093687;28;19908;-71
2022/03/25 00:36:44;;;;;;;;;;;6.70;1.00;;;;;;5094456;28;20249;-71
2022/03/25 00:39:10;;;;;;;;;;;6.40;1.00;;;;;;5075670;28;19923;-71
2022/03/25 00:41:36;;;;;;;;;;;6.50;1.00;;;;;;5094336;28;19969;-71
2022/03/25 00:44:05;;;;;;;;;;;6.60;1.00;;;;;;5093552;28;19939;-72
2022/03/25 00:46:31;;;;;;;;;;;6.40;1.00;;;;;;5094271;28;19977;-71
2022/03/25 00:48:57;;;;;;;;;;;;;;;;;;5093715;28;20376;-71
2022/03/25 00:51:22;;;;;;;;;;;6.50;1.00;;;;;;5093788;28;19988;-71
2022/03/25 00:53:48;;;;;;;;;;;6.50;1.00;;;;;;5094200;28;19958;-72
2022/03/25 00:56:13;;;;;;;;;;;6.20;1.00;;;;;;5093257;28;19918;-71
2022/03/25 00:58:39;;;;;;;;;;;6.10;1.00;;;;;;5094035;28;19908;-71
2022/03/25 01:01:05;;;;;;;;;;;6.10;1.00;;;;;;5093197;28;19951;-71
2022/03/25 01:03:31;;;;;;;;;;;6.40;1.00;;;;;;5093977;28;19915;-71
2022/03/25 01:05:57;;;;;;;;;;;;;;;;;;5075512;28;19909;-71
2022/03/25 01:08:22;;;;;;;;;;;6.30;1.00;;;;;;5093509;28;20372;-71
2022/03/25 01:10:48;;;;;;;;;;;6.40;1.00;;;;;;5093808;28;19958;-71
2022/03/25 01:13:13;;;;;;;;;;;6.10;1.00;;;;;;5092943;28;19912;-71
2022/03/25 01:15:39;;;;;;;;;;;6.10;1.00;;;;;;5093881;28;19912;-71
2022/03/25 01:18:04;;;;;;;;;;;6.30;1.00;;;;;;5092887;28;19908;-71
2022/03/25 01:20:31;;;;;;;;;;;6.40;1.00;;;;;;5075449;28;19950;-71
2022/03/25 01:22:56;;;;;;;;;;;6.50;1.00;;;;;;5093607;28;19908;-71
2022/03/25 01:25:22;;;;;;;;;;;6.40;1.00;;;;;;5074735;28;19954;-71
2022/03/25 01:27:48;;;;;;;;;;;6.30;1.00;;;;;;5093239;28;20460;-71
2022/03/25 01:30:13;;;;;;;;;;;6.00;1.00;;;;;;5074436;28;19940;-71
2022/03/25 01:32:39;;;;;;;;;;;6.00;1.00;;;;;;5074618;28;19908;-71
2022/03/25 01:35:09;;;;;;;;;;;6.00;1.00;;;;;;5092608;28;20364;-72
2022/03/25 01:37:35;;;;;;;;;;;;;;;;;;5093299;28;20311;-71
2022/03/25 01:40:00;;;;;;;;;;;;;;;;;;5092801;28;19975;-71
2022/03/25 01:42:30;;;;;;;;;;;6.20;1.00;;;;;;5093019;28;19958;-71
2022/03/25 01:44:55;;;;;;;;;;;6.10;1.00;;;;;;5093166;28;19908;-71
2022/03/25 01:47:26;;;;;;;;;;;6.20;1.00;;;;;;5092291;28;20536;-70
2022/03/25 01:49:51;;;;;;;;;;;6.10;1.00;;;;;;5093086;28;19931;-70
2022/03/25 01:52:17;;;;;;;;;;;6.10;1.00;;;;;;5092210;28;20352;-70
2022/03/25 01:54:42;;;;;;;;;;;6.20;1.00;;;;;;5093021;28;19912;-70
2022/03/25 01:57:12;;;;;;;;;;;6.20;1.00;;;;;;5092143;28;19961;-71
2022/03/25 01:59:38;;;;;;;;;;;6.20;1.00;;;;;;5092923;28;19908;-70
2022/03/25 02:02:04;;;;;;;;;;;;;;;;;;5092154;28;19935;-70
2022/03/25 02:04:29;;;;;;;;;;;6.20;1.00;;;;;;5092835;28;19965;-70
2022/03/25 02:06:55;;;;;;;;;;;6.10;1.00;;;;;;5092844;28;20372;-70
2022/03/25 02:09:21;;;;;;;;;;;6.20;1.00;;;;;;5092362;28;19943;-70
2022/03/25 02:11:46;;;;;;;;;;;6.30;1.00;;;;;;5092733;28;19908;-70
2022/03/25 02:14:12;;;;;;;;;;;5.90;1.00;;;;;;5091903;28;19931;-70
2022/03/25 02:16:38;;;;;;;;;;;5.80;1.00;;;;;;5074585;28;19908;-70
2022/03/25 02:19:04;;;;;;;;;;;;;;;;;;5091927;28;19916;-71
2022/03/25 02:21:31;;;;;;;;;;;5.70;1.00;;;;;;5092608;28;19918;-70
2022/03/25 02:23:57;;;;;;;;;;;5.80;1.00;;;;;;5092637;28;19908;-70
2022/03/25 02:26:23;;;;;;;;;;;5.80;1.00;;;;;;5092115;28;20496;-69
2022/03/25 02:28:48;;;;;;;;;;;5.70;1.00;;;;;;5092448;28;19912;-71
2022/03/25 02:31:17;;;;;;;;;;;;;;;;;;5091685;28;19912;-71
2022/03/25 02:33:42;;;;;;;;;;;5.70;1.00;;;;;;5092484;28;19908;-71
2022/03/25 02:36:08;;;;;;;;;;;5.70;1.00;;;;;;5091704;28;19908;-71
2022/03/25 02:38:34;;;;;;;;;;;5.70;1.00;;;;;;5092790;28;20318;-71
2022/03/25 02:40:59;;;;;;;;;;;5.70;1.00;;;;;;5092481;28;19973;-71
2022/03/25 02:43:25;;;;;;;;;;;5.70;1.00;;;;;;5092046;28;19965;-71
2022/03/25 02:45:50;;;;;;;;;;;5.50;1.00;;;;;;5096522;28;19998;-71
2022/03/25 02:48:16;;;;;;;;;;;5.70;1.00;;;;;;5095882;28;20364;-71
2022/03/25 02:50:42;;;;;;;;;;;5.60;1.00;;;;;;5096433;28;20399;-71
2022/03/25 02:53:08;;;;;;;;;;;5.50;1.00;;;;;;5095686;28;19998;-71
2022/03/25 02:55:34;;;;;;;;;;;5.40;1.00;;;;;;5096581;28;19987;-71
2022/03/25 02:58:00;;;;;;;;;;;5.60;1.00;;;;;;5078152;28;20375;-71
2022/03/25 03:00:26;;;;;;;;;;;5.50;1.00;;;;;;5077393;28;19915;-70
2022/03/25 03:02:52;;;;;;;;;;;5.50;1.00;;;;;;5096309;28;20373;-71
2022/03/25 03:05:18;;;;;;;;;;;;;;;;;;5095477;28;19909;-71
2022/03/25 03:07:45;;;;;;;;;;;5.50;1.00;;;;;;5096047;28;19924;-71
2022/03/25 03:10:11;;;;;;;;;;;5.20;1.00;;;;;;5077225;28;19908;-71
2022/03/25 03:12:37;;;;;;;;;;;5.00;1.00;;;;;;5096072;28;20394;-71
2022/03/25 03:15:03;;;;;;;;;;;5.20;1.00;;;;;;5096112;28;20009;-70
2022/03/25 03:17:29;;;;;;;;;;;5.20;1.00;;;;;;5095411;28;19908;-71
2022/03/25 03:19:54;;;;;;;;;;;5.30;1.00;;;;;;5095987;28;19931;-71
2022/03/25 03:22:20;;;;;;;;;;;4.90;1.00;;;;;;5095128;28;20367;-71
2022/03/25 03:24:46;;;;;;;;;;;5.10;1.00;;;;;;5095925;28;19987;-71
2022/03/25 03:27:12;;;;;;;;;;;5.20;1.00;;;;;;5094618;28;20328;-71
2022/03/25 03:29:37;;;;;;;;;;;5.20;1.00;;;;;;5095752;28;19912;-71
2022/03/25 03:32:04;;;;;;;;;;;5.10;1.00;;;;;;5095749;28;19912;-71
2022/03/25 03:34:30;;;;;;;;;;;5.20;1.00;;;;;;5094882;28;19912;-71
2022/03/25 03:36:55;;;;;;;;;;;5.10;1.00;;;;;;5095616;28;19915;-71
2022/03/25 03:39:21;;;;;;;;;;;4.80;1.00;;;;;;5095215;28;19913;-71
2022/03/25 03:41:46;;;;;;;;;;;4.90;1.00;;;;;;5095517;28;19918;-71
2022/03/25 03:44:12;;;;;;;;;;;4.80;1.00;;;;;;5094725;28;19908;-71
2022/03/25 03:46:37;;;;;;;;;;;5.00;1.00;;;;;;5095434;28;19908;-71
2022/03/25 03:49:03;;;;;;;;;;;;;;;;;;5095309;28;19966;-71
2022/03/25 03:51:29;;;;;;;;;;;5.00;1.00;;;;;;5076310;28;19904;-70
2022/03/25 03:53:54;;;;;;;;;;;5.10;1.00;;;;;;5077182;28;19913;-71
2022/03/25 03:56:22;;;;;;;;;;;4.80;1.00;;;;;;5093741;28;19908;-71
2022/03/25 03:58:47;;;;;;;;;;;4.70;1.00;;;;;;5095209;28;19915;-70
2022/03/25 04:01:13;;;;;;;;;;;4.80;1.00;;;;;;5076183;28;19908;-70
2022/03/25 04:03:39;;;;;;;;;;;;;;;;;;5095105;28;19916;-71
2022/03/25 04:06:05;;;;;;;;;;;;;;;;;;5076968;28;20324;-70
2022/03/25 04:08:31;;;;;;;;;;;4.90;1.00;;;;;;5094053;28;20434;-70
2022/03/25 04:10:56;;;;;;;;;;;4.90;1.00;;;;;;5094999;28;20383;-70
2022/03/25 04:13:22;;;;;;;;;;;4.80;1.00;;;;;;5076047;28;19908;-70
2022/03/25 04:15:47;;;;;;;;;;;4.20;1.00;;;;;;5094846;28;19908;-70
2022/03/25 04:18:13;;;;;;;;;;;4.10;1.00;;;;;;5094065;28;19908;-70
2022/03/25 04:20:38;;;;;;;;;;;4.20;1.00;;;;;;5094753;28;19909;-70
2022/03/25 04:23:04;;;;;;;;;;;4.30;1.00;;;;;;5076608;28;20269;-70
2022/03/25 04:25:29;;;;;;;;;;;4.50;1.00;;;;;;5075762;28;19947;-70
2022/03/25 04:27:56;;;;;;;;;;;4.60;1.00;;;;;;5094400;28;19934;-70
2022/03/25 04:30:27;;;;;;;;;;;4.50;1.00;;;;;;5093803;28;19943;-70
2022/03/25 04:32:53;;;;;;;;;;;4.60;1.00;;;;;;5094516;28;19908;-70
2022/03/25 04:35:19;;;;;;;;;;;4.40;1.00;;;;;;5093745;28;19908;-70
2022/03/25 04:37:44;;;;;;;;;;;4.50;1.00;;;;;;5076174;28;19920;-70
2022/03/25 04:40:10;;;;;;;;;;;;;;;;;;5094079;28;19934;-70
2022/03/25 04:42:36;;;;;;;;;;;4.20;1.00;;;;;;5094070;28;19908;-70
2022/03/25 04:45:01;;;;;;;;;;;4.40;1.00;;;;;;5094283;28;20002;-70
2022/03/25 04:47:27;;;;;;;;;;;4.30;1.00;;;;;;5093444;28;20003;-70
2022/03/25 04:49:52;;;;;;;;;;;4.20;1.00;;;;;;5094347;28;19912;-70
2022/03/25 04:52:18;;;;;;;;;;;4.20;1.00;;;;;;5093266;28;20373;-70
2022/03/25 04:54:43;;;;;;;;;;;4.00;1.00;;;;;;5075971;28;19912;-71
2022/03/25 04:57:09;;;;;;;;;;;4.00;1.00;;;;;;5094103;28;19908;-71
2022/03/25 04:59:34;;;;;;;;;;;4.10;1.00;;;;;;5093342;28;19916;-71
2022/03/25 05:02:01;;;;;;;;;;;4.20;1.00;;;;;;5094023;28;20345;-71
2022/03/25 05:04:27;;;;;;;;;;;4.10;1.00;;;;;;5093148;28;19908;-71
2022/03/25 05:06:53;;;;;;;;;;;4.30;1.00;;;;;;5093131;28;19915;-70
2022/03/25 05:09:18;;;;;;;;;;;4.00;1.00;;;;;;5092590;28;20281;-71
2022/03/25 05:11:44;;;;;;;;;;;3.80;1.20;;;;;;5094023;28;19916;-70
2022/03/25 05:14:10;;;;;;;;;;;3.80;4.00;;;;;;5075539;28;19994;-70
2022/03/25 05:16:35;;;;;;;;;;;3.90;6.00;;;;;;5074663;28;19908;-71
2022/03/25 05:19:01;;;;;;;;;;;3.70;6.00;;;;;;5093584;28;20392;-70
2022/03/25 05:21:27;;;;;;;;;;;3.70;6.90;;;;;;5093056;28;19915;-70
2022/03/25 05:23:53;;;;;;;;;;;3.60;6.80;;;;;;5093547;28;19908;-70
2022/03/25 05:26:18;;;;;;;;;;;3.90;7.50;;;;;;5074597;28;20360;-70
2022/03/25 05:28:44;;;;;;;;;;;3.70;6.50;;;;;;5075134;28;19947;-70
2022/03/25 05:31:09;;;;;;;;;;;3.60;8.30;;;;;;5093435;28;19912;-70
2022/03/25 05:33:35;;;;;;;;;;;3.50;10.80;;;;;;5092687;28;20594;-71
2022/03/25 05:36:01;;;;;;;;;;;3.40;14.10;;;;;;5095682;28;19908;-71
2022/03/25 05:38:26;;;;;;;;;;;3.50;15.30;;;;;;5077906;28;19923;-71
2022/03/25 05:40:52;;;;;;;;;;;3.50;16.10;;;;;;5093783;28;19908;-70
2022/03/25 05:43:17;;;;;;;;;;;3.60;16.70;;;;;;5093323;28;19947;-71
2022/03/25 05:45:43;;;;;;;;;;;3.60;16.80;;;;;;5075006;28;19957;-71
2022/03/25 05:48:08;;;;;;;;;;;3.70;15.30;;;;;;5093024;28;19912;-71
2022/03/25 05:50:34;;;;;;;;;;;3.70;15.50;;;;;;5074076;28;19973;-72
2022/03/25 05:53:00;;;;;;;;;;;3.50;15.10;;;;;;5093068;28;20379;-71
2022/03/25 05:55:25;;;;;;;;;;;3.60;20.30;;;;;;5074511;28;19914;-71
2022/03/25 05:57:51;;;;;;;;;;;3.80;18.70;;;;;;5093014;28;19938;-71
2022/03/25 06:00:17;;;;;;;;;;;;;;;;;;5092347;28;19908;-71
2022/03/25 06:02:43;;;;;;;;;;;3.80;18.50;;;;;;5092548;28;19914;-71
2022/03/25 06:05:09;;;;;;;;;;;3.70;18.00;;;;;;5113199;28;20366;-71
2022/03/25 06:07:38;;;;;;;;;;;3.70;21.50;;;;;;5107676;28;19981;-71
2022/03/25 06:10:05;;;;;;;;;;;3.70;22.40;;;;;;5093703;28;19970;-72
2022/03/25 06:12:31;;;;;;;;;;;;;;;;;;5112324;28;19919;-71
2022/03/25 06:14:56;;;;;;;;;;;4.10;21.40;;;;;;5113049;28;19908;-71
2022/03/25 06:17:22;;;;;;;;;;;4.00;19.80;;;;;;5112112;28;20453;-71
2022/03/25 06:19:47;;;;;;;;;;;4.10;22.60;;;;;;5112638;28;19947;-71
2022/03/25 06:22:13;;;;;;;;;;;4.10;22.80;;;;;;5094707;28;20368;-70
2022/03/25 06:24:38;;;;;;;;;;;4.30;23.60;;;;;;5112146;28;19916;-71
2022/03/25 06:27:04;;;;;;;;;;;4.20;22.30;;;;;;5112668;28;20388;-69
2022/03/25 19:11:51;;;;;;;;;;;14.00;1.00;;;;;;5130300;27;20295;-77
2022/03/25 19:14:17;;;;;;;;;;;;;;;;;;5116064;28;19912;-78
2022/03/25 19:16:43;;;;;;;;;;;14.00;1.00;;;;;;5123424;28;20413;-77
2022/03/25 19:19:08;;;;;;;;;;;14.00;1.00;;;;;;5120071;28;19912;-78
2022/03/25 19:21:34;;;;;;;;;;;;;;;;;;5089964;28;19915;-77
2022/03/25 19:24:00;;;;;;;;;;;14.00;1.00;;;;;;5089403;28;20391;-76
2022/03/25 19:26:26;;;;;;;;;;;13.90;1.00;;;;;;5089901;28;20053;-78
2022/03/25 19:28:52;;;;;;;;;;;13.90;1.00;;;;;;5071704;28;19909;-77
2022/03/25 19:31:19;;;;;;;;;;;13.90;1.00;;;;;;5091391;28;19908;-76
2022/03/25 19:33:44;;;;;;;;;;;13.70;1.00;;;;;;5097429;28;19950;-76
2022/03/25 19:36:11;;;;;;;;;;;13.70;1.00;;;;;;5098801;28;19912;-77
2022/03/25 19:38:36;;;;;;;;;;;13.60;1.00;;;;;;5100603;28;19913;-77
2022/03/25 19:41:02;;;;;;;;;;;13.50;1.00;;;;;;5070555;28;19935;-76
2022/03/25 19:43:30;;;;;;;;;;;13.50;1.00;;;;;;5089375;28;20399;-76
2022/03/25 19:45:59;;;;;;;;;;;13.40;1.00;;;;;;5089399;28;19956;-77
2022/03/25 19:48:26;;;;;;;;;;;13.40;1.00;;;;;;5089348;28;19908;-77
2022/03/25 19:50:51;;;;;;;;;;;13.30;1.00;;;;;;5105896;28;19944;-76
2022/03/25 19:53:17;;;;;;;;;;;13.40;1.00;;;;;;5088401;28;19912;-77
2022/03/25 19:55:44;;;;;;;;;;;13.30;1.00;;;;;;5089285;28;19915;-76
2022/03/25 19:58:09;;;;;;;;;;;13.40;1.00;;;;;;5088437;28;19940;-76
2022/03/25 20:00:36;;;;;;;;;;;13.40;1.00;;;;;;5089171;28;19956;-77
2022/03/25 20:03:02;;;;;;;;;;;13.50;1.00;;;;;;5088241;28;19909;-74
2022/03/25 20:05:28;;;;;;;;;;;13.40;1.00;;;;;;5088958;28;19908;-76
2022/03/25 20:07:53;;;;;;;;;;;;;;;;;;5070761;28;19950;-76
2022/03/25 20:10:19;;;;;;;;;;;13.30;1.00;;;;;;5087673;28;19928;-76
2022/03/25 20:12:45;;;;;;;;;;;13.30;1.00;;;;;;5088912;28;20372;-77
2022/03/25 20:15:10;;;;;;;;;;;13.40;1.00;;;;;;5087970;28;19918;-76
2022/03/25 20:17:36;;;;;;;;;;;13.30;1.00;;;;;;5095097;28;20014;-76
2022/03/25 20:20:02;;;;;;;;;;;;;;;;;;5101704;28;20279;-74
2022/03/25 20:22:28;;;;;;;;;;;13.40;1.00;;;;;;5097487;28;19916;-76
2022/03/25 20:24:55;;;;;;;;;;;;;;;;;;5095303;28;19912;-76
2022/03/25 20:27:21;;;;;;;;;;;13.40;1.00;;;;;;5094492;28;20500;-76
2022/03/25 20:29:47;;;;;;;;;;;13.40;1.00;;;;;;5095212;28;19912;-75
2022/03/25 20:32:13;;;;;;;;;;;13.40;1.00;;;;;;5094409;28;20008;-76
2022/03/25 20:34:39;;;;;;;;;;;;;;;;;;5091057;28;19919;-75
2022/03/25 20:37:04;;;;;;;;;;;13.40;1.00;;;;;;5097003;28;19908;-75
2022/03/25 20:39:37;;;;;;;;;;;13.40;1.00;;;;;;5112622;28;19916;-76
2022/03/25 20:42:03;;;;;;;;;;;;;;;;;;5115531;28;19912;-75
2022/03/25 20:44:28;;;;;;;;;;;13.30;1.00;;;;;;5116982;28;19930;-77
2022/03/25 20:46:54;;;;;;;;;;;;;;;;;;5115896;28;19915;-76
2022/03/25 20:49:20;;;;;;;;;;;13.40;1.00;;;;;;5100901;28;19909;-77
2022/03/25 20:51:45;;;;;;;;;;;13.40;1.00;;;;;;5074662;28;19997;-77
2022/03/25 20:54:13;;;;;;;;;;;13.40;1.00;;;;;;5074124;28;19909;-77
2022/03/25 20:56:39;;;;;;;;;;;;;;;;;;5074883;28;19915;-77
2022/03/25 20:59:05;;;;;;;;;;;13.40;1.00;;;;;;5074122;28;19912;-75
2022/03/25 21:01:31;;;;;;;;;;;13.40;1.00;;;;;;5075072;28;19919;-78
2022/03/25 21:03:57;;;;;;;;;;;13.30;1.00;;;;;;5074949;28;20376;-77
2022/03/25 21:06:23;;;;;;;;;;;;;;;;;;5094013;28;19904;-77
2022/03/25 21:08:49;;;;;;;;;;;13.30;1.00;;;;;;5093325;28;20333;-76
2022/03/25 21:11:14;;;;;;;;;;;13.30;1.00;;;;;;5092830;28;19920;-76
2022/03/25 21:13:41;;;;;;;;;;;;;;;;;;5075546;28;19924;-77
2022/03/25 21:16:07;;;;;;;;;;;13.10;1.00;;;;;;5073643;28;19944;-76
2022/03/25 21:18:33;;;;;;;;;;;;;;;;;;5074719;28;19916;-76
2022/03/25 21:20:59;;;;;;;;;;;13.10;1.00;;;;;;5094308;28;19955;-77
2022/03/25 21:23:25;;;;;;;;;;;;;;;;;;5076645;28;19998;-77
2022/03/25 21:25:50;;;;;;;;;;;13.10;1.00;;;;;;5095376;28;19919;-77
2022/03/25 21:28:17;;;;;;;;;;;13.00;1.00;;;;;;5094101;28;19908;-76
2022/03/25 21:30:42;;;;;;;;;;;13.10;1.00;;;;;;5094397;28;20015;-77
2022/03/25 21:33:08;;;;;;;;;;;13.00;1.00;;;;;;5092302;28;19935;-77
2022/03/25 21:35:34;;;;;;;;;;;;;;;;;;5093958;28;19909;-76
2022/03/25 21:38:05;;;;;;;;;;;13.00;1.00;;;;;;5075804;28;19948;-77
2022/03/25 21:40:34;;;;;;;;;;;13.00;1.00;;;;;;5093736;28;19916;-76
2022/03/25 21:43:00;;;;;;;;;;;12.90;1.00;;;;;;5093848;28;19912;-79
2022/03/25 21:45:29;;;;;;;;;;;13.00;1.00;;;;;;5093650;28;19990;-79
2022/03/25 21:47:56;;;;;;;;;;;12.90;1.00;;;;;;5076564;28;19988;-77
2022/03/25 21:50:22;;;;;;;;;;;12.90;1.00;;;;;;5094251;28;20372;-76
2022/03/25 21:52:48;;;;;;;;;;;12.90;1.00;;;;;;5094362;28;19961;-77
2022/03/25 21:55:13;;;;;;;;;;;12.90;1.00;;;;;;5089235;28;19909;-76
2022/03/25 21:57:39;;;;;;;;;;;12.90;1.00;;;;;;5073399;28;19909;-76
2022/03/25 22:00:05;;;;;;;;;;;;;;;;;;5073255;28;19914;-74
2022/03/25 22:02:30;;;;;;;;;;;12.80;1.00;;;;;;5089772;28;19995;-77
2022/03/25 22:04:56;;;;;;;;;;;12.80;1.00;;;;;;5108920;28;19912;-77
2022/03/25 22:07:21;;;;;;;;;;;12.70;1.00;;;;;;5113127;28;19907;-77
2022/03/25 22:09:47;;;;;;;;;;;12.70;1.00;;;;;;5114291;28;19920;-78
2022/03/25 22:12:12;;;;;;;;;;;12.70;1.00;;;;;;5113051;28;19919;-75
2022/03/25 22:14:38;;;;;;;;;;;12.70;1.00;;;;;;5114156;28;19953;-77
2022/03/25 22:17:04;;;;;;;;;;;12.70;1.00;;;;;;5113868;28;19951;-77
2022/03/25 22:19:29;;;;;;;;;;;12.70;1.00;;;;;;5105957;28;19955;-77
2022/03/25 22:21:55;;;;;;;;;;;12.70;1.00;;;;;;5093085;28;19912;-77
2022/03/25 22:24:20;;;;;;;;;;;12.70;1.00;;;;;;5092322;28;20293;-77
2022/03/25 22:26:46;;;;;;;;;;;12.60;1.00;;;;;;5092937;28;20383;-78
2022/03/25 22:29:11;;;;;;;;;;;12.60;1.00;;;;;;5092362;28;20445;-77
2022/03/25 22:31:37;;;;;;;;;;;12.60;1.00;;;;;;5093480;28;19908;-77
2022/03/25 22:34:02;;;;;;;;;;;12.60;1.00;;;;;;5088425;28;19912;-78
2022/03/25 22:36:28;;;;;;;;;;;12.60;1.00;;;;;;5072304;28;20560;-76
2022/03/25 22:38:54;;;;;;;;;;;12.50;1.00;;;;;;5072653;28;19909;-76
2022/03/25 22:41:20;;;;;;;;;;;12.50;1.00;;;;;;5072363;28;19948;-75
2022/03/25 22:43:46;;;;;;;;;;;;;;;;;;5079239;28;19916;-76
2022/03/25 22:46:11;;;;;;;;;;;12.50;1.00;;;;;;5071784;28;19916;-76
2022/03/25 22:48:37;;;;;;;;;;;12.50;1.00;;;;;;5073132;28;20292;-77
2022/03/25 22:51:03;;;;;;;;;;;12.40;1.00;;;;;;5075141;28;20279;-77
2022/03/25 22:53:28;;;;;;;;;;;12.50;1.00;;;;;;5092099;28;19986;-76
2022/03/25 22:55:54;;;;;;;;;;;12.40;1.00;;;;;;5092670;28;19962;-74
2022/03/25 22:58:20;;;;;;;;;;;12.40;1.00;;;;;;5091745;28;19951;-75
2022/03/25 23:00:48;;;;;;;;;;;12.40;1.00;;;;;;5091544;28;19908;-74
2022/03/25 23:03:15;;;;;;;;;;;12.40;1.00;;;;;;5071469;28;20306;-74
2022/03/25 23:05:41;;;;;;;;;;;;;;;;;;5072251;28;19919;-77
2022/03/25 23:08:07;;;;;;;;;;;12.20;1.00;;;;;;5072263;28;20273;-76
2022/03/25 23:10:32;;;;;;;;;;;12.30;1.00;;;;;;5071229;28;19924;-76
2022/03/25 23:13:02;;;;;;;;;;;12.30;1.00;;;;;;5072248;28;19912;-76
2022/03/25 23:15:28;;;;;;;;;;;12.30;1.00;;;;;;5071484;28;19913;-76
2022/03/25 23:17:53;;;;;;;;;;;12.20;1.00;;;;;;5072281;28;20326;-78
2022/03/25 23:20:19;;;;;;;;;;;12.00;1.00;;;;;;5086184;28;20283;-78
2022/03/25 23:22:44;;;;;;;;;;;11.80;1.00;;;;;;5092404;28;19908;-78
2022/03/25 23:25:10;;;;;;;;;;;;;;;;;;5092057;28;19912;-75
2022/03/25 23:27:36;;;;;;;;;;;11.00;1.00;;;;;;5091940;28;19908;-75
2022/03/25 23:30:01;;;;;;;;;;;10.70;1.00;;;;;;5092200;28;19912;-76
2022/03/25 23:32:27;;;;;;;;;;;10.20;1.00;;;;;;5091498;28;19908;-76
2022/03/25 23:34:52;;;;;;;;;;;10.30;1.00;;;;;;5089328;28;19908;-74
2022/03/25 23:37:18;;;;;;;;;;;10.30;1.00;;;;;;5071459;28;19908;-74
2022/03/25 23:39:43;;;;;;;;;;;10.20;1.00;;;;;;5072053;28;19913;-75
2022/03/25 23:42:09;;;;;;;;;;;10.10;1.00;;;;;;5072259;28;19912;-74
2022/03/25 23:44:34;;;;;;;;;;;10.10;1.00;;;;;;5071184;28;19909;-74
2022/03/25 23:47:01;;;;;;;;;;;10.10;1.00;;;;;;5071947;28;20012;-74
2022/03/25 23:49:27;;;;;;;;;;;10.30;1.00;;;;;;5078740;28;19912;-74
2022/03/25 23:51:52;;;;;;;;;;;10.20;1.00;;;;;;5092170;28;19916;-74
2022/03/25 23:54:18;;;;;;;;;;;10.10;1.00;;;;;;5091293;28;20318;-74
2022/03/25 23:56:44;;;;;;;;;;;10.00;1.00;;;;;;5093324;28;20287;-75
2022/03/25 23:59:09;;;;;;;;;;;10.10;1.00;;;;;;5095804;28;20283;-74
